Time;durP1;ratioP1;P1;durP2;ratioP2;P2;SDS_P1;SDS_P2;PMS_P1;PMS_P2;Temp;Humidity;BMP_temperature;BMP_pressure;BME280_temperature;BME280_humidity;BME280_pressure;Samples;Min_cycle;Max_cycle;Signal;HPM_P1;HPM_P2
2023/12/31 00:00:36;;;;;;;;;71.50;53.25;;;;;7.15;81.49;101540.94;146630;578;45014;-69
2023/12/31 00:03:41;;;;;;;;;70.00;55.50;;;;;7.13;80.82;101538.25;146616;580;46012;-70
2023/12/31 00:06:41;;;;;;;;;68.00;56.50;;;;;7.11;81.54;101541.50;146619;656;46010;-69
2023/12/31 00:09:34;;;;;;;;;70.75;56.50;;;;;7.08;81.25;101534.41;146614;632;46016;-68
2023/12/31 00:12:38;;;;;;;;;68.25;53.50;;;;;7.07;81.36;101557.47;146616;586;47021;-69
2023/12/31 00:15:40;;;;;;;;;71.00;53.75;;;;;7.10;81.85;101537.09;146614;622;46012;-67
2023/12/31 00:18:43;;;;;;;;;68.00;53.50;;;;;7.07;83.98;101542.00;146706;577;46014;-65
2023/12/31 00:21:50;;;;;;;;;68.00;53.00;;;;;7.08;82.59;101539.56;146619;630;45016;-68
2023/12/31 00:24:42;;;;;;;;;68.75;51.25;;;;;7.10;82.68;101537.09;146621;634;46014;-71
2023/12/31 00:27:36;;;;;;;;;66.25;51.50;;;;;7.11;82.48;101544.97;146617;578;46017;-70
2023/12/31 00:30:30;;;;;;;;;66.50;52.00;;;;;7.12;82.57;101541.59;146621;609;46020;-69
2023/12/31 00:33:33;;;;;;;;;63.50;48.75;;;;;7.12;82.15;101539.00;146616;632;46017;-69
2023/12/31 00:36:26;;;;;;;;;65.75;51.25;;;;;7.11;82.26;101538.91;146622;578;45031;-67
2023/12/31 00:39:19;;;;;;;;;68.00;52.00;;;;;7.07;82.45;101537.78;146616;595;47016;-67
2023/12/31 00:42:21;;;;;;;;;;;;;;;;;;;;;
2023/12/31 00:45:21;;;;;;;;;67.75;51.75;;;;;7.06;82.58;101546.28;146617;624;47012;-69
2023/12/31 00:48:19;;;;;;;;;65.00;51.25;;;;;7.08;82.84;101536.09;146622;627;46010;-69
2023/12/31 00:51:17;;;;;;;;;66.25;51.00;;;;;7.09;82.44;101540.47;146616;637;47016;-70
2023/12/31 00:54:18;;;;;;;;;73.75;57.25;;;;;7.10;82.69;101543.19;146623;664;46020;-70
2023/12/31 00:57:16;;;;;;;;;71.50;55.00;;;;;7.11;82.87;101539.81;146620;564;46012;-70
2023/12/31 01:00:32;;;;;;;;;;;;;;;;;;;;;
2023/12/31 01:03:43;;;;;;;;;68.75;52.75;;;;;7.08;82.73;101534.41;146618;662;46013;-63
2023/12/31 01:06:41;;;;;;;;;70.75;52.25;;;;;7.11;83.54;101536.34;146621;569;46020;-63
2023/12/31 01:09:54;;;;;;;;;75.33;63.00;;;;;7.11;83.06;101536.34;146620;565;46017;-64
2023/12/31 01:13:08;;;;;;;;;;;;;;;;;;;;;
2023/12/31 01:16:17;;;;;;;;;65.25;51.75;;;;;7.13;82.79;101530.53;146616;565;46012;-63
2023/12/31 01:19:38;;;;;;;;;70.25;53.25;;;;;7.14;83.40;101539.16;146619;569;46021;-68
2023/12/31 01:22:44;;;;;;;;;63.75;49.25;;;;;7.15;83.64;101533.19;146612;571;46018;-68
2023/12/31 01:25:44;;;;;;;;;66.25;52.75;;;;;7.18;83.24;101530.88;146618;600;46029;-67
2023/12/31 01:29:00;;;;;;;;;61.00;47.75;;;;;7.20;83.50;101528.41;146615;600;47012;-67
2023/12/31 01:32:08;;;;;;;;;69.75;54.25;;;;;7.20;82.60;101524.16;146615;619;46020;-68
2023/12/31 01:35:22;;;;;;;;;60.00;46.25;;;;;7.20;82.94;101524.16;146614;624;46036;-67
2023/12/31 01:38:20;;;;;;;;;63.50;49.00;;;;;7.16;83.33;101514.34;146619;729;46020;-69
2023/12/31 01:41:18;;;;;;;;;59.75;47.75;;;;;7.16;83.29;101524.69;146617;571;46016;-68
2023/12/31 01:44:21;;;;;;;;;60.50;45.00;;;;;7.15;83.42;101533.19;146614;595;47020;-68
2023/12/31 01:47:19;;;;;;;;;68.50;52.75;;;;;7.15;83.86;101531.50;146615;580;46013;-68
2023/12/31 01:50:30;;;;;;;;;56.25;45.00;;;;;6.41;82.87;101401.16;146618;619;46020;-69
2023/12/31 01:53:31;;;;;;;;;56.00;42.75;;;;;7.15;83.35;101531.50;146616;590;46016;-68
2023/12/31 01:56:40;;;;;;;;;74.50;56.50;;;;;7.15;82.89;101531.50;146616;584;46019;-68
2023/12/31 02:00:03;;;;;;;;;64.25;49.25;;;;;7.21;83.51;101530.22;146614;570;47012;-67
2023/12/31 02:02:59;;;;;;;;;63.75;48.00;;;;;7.23;83.46;101529.56;146612;573;47011;-68
2023/12/31 02:06:02;;;;;;;;;64.25;48.25;;;;;7.25;83.47;101527.06;146612;598;46016;-68
2023/12/31 02:08:55;;;;;;;;;59.25;46.25;;;;;7.30;83.50;101525.75;146617;617;47010;-67
2023/12/31 02:11:53;;;;;;;;;61.00;46.25;;;;;7.32;83.44;101519.00;146615;585;46012;-68
2023/12/31 02:14:46;;;;;;;;;64.75;49.75;;;;;7.33;83.41;101515.69;146620;616;46020;-68
2023/12/31 02:17:46;;;;;;;;;62.50;47.00;;;;;5.64;82.96;101218.22;146615;619;46016;-71
2023/12/31 02:20:48;;;;;;;;;58.50;44.50;;;;;7.32;82.92;101508.69;146619;577;46010;-69
2023/12/31 02:23:47;;;;;;;;;65.25;50.25;;;;;7.33;83.18;101506.25;146613;672;46013;-70
2023/12/31 02:27:01;;;;;;;;;58.00;46.00;;;;;5.25;82.37;101132.94;146616;580;47010;-69
2023/12/31 02:30:05;;;;;;;;;54.75;43.00;;;;;7.39;82.68;101508.41;146616;586;47014;-69
2023/12/31 02:33:01;;;;;;;;;69.75;53.50;;;;;7.35;82.79;101504.69;146613;570;46021;-70
2023/12/31 02:35:56;;;;;;;;;54.50;44.50;;;;;7.31;82.85;101506.91;146614;588;46913;-72
2023/12/31 02:38:49;;;;;;;;;62.25;48.50;;;;;7.26;82.76;101500.47;146614;566;46020;-71
2023/12/31 02:41:48;;;;;;;;;56.25;43.75;;;;;7.23;82.38;101508.00;146611;587;46016;-70
2023/12/31 02:44:46;;;;;;;;;48.25;38.75;;;;;7.17;82.73;101501.59;146620;610;47028;-71
2023/12/31 02:47:48;;;;;;;;;55.50;45.00;;;;;7.14;82.36;101497.87;146612;661;46017;-70
2023/12/31 02:51:02;;;;;;;;;62.50;47.25;;;;;7.09;82.23;101506.94;146618;595;46020;-70
2023/12/31 02:53:56;;;;;;;;;57.50;46.00;;;;;7.04;82.46;101510.81;146613;566;46914;-70
2023/12/31 02:57:11;;;;;;;;;58.75;45.50;;;;;5.22;82.24;101190.94;146621;569;46020;-70
2023/12/31 03:00:16;;;;;;;;;55.75;44.00;;;;;6.94;82.33;101502.38;146616;611;46012;-69
2023/12/31 03:03:13;;;;;;;;;55.25;42.50;;;;;6.91;82.16;101503.81;146618;630;46021;-68
2023/12/31 03:06:18;;;;;;;;;48.50;38.75;;;;;6.91;82.09;101503.81;146614;603;46012;-67
2023/12/31 03:09:22;;;;;;;;;47.75;40.50;;;;;6.89;82.14;101500.25;146617;619;45021;-68
2023/12/31 03:12:29;;;;;;;;;50.75;39.75;;;;;6.88;82.20;101498.41;146616;583;46016;-67
2023/12/31 03:15:31;;;;;;;;;46.50;36.50;;;;;6.83;82.15;101492.03;146619;572;46036;-68
2023/12/31 03:18:39;;;;;;;;;49.75;38.75;;;;;6.83;82.11;101498.06;146614;572;47013;-65
2023/12/31 03:21:49;;;;;;;;;42.25;35.00;;;;;6.81;81.88;101493.56;146622;569;46010;-66
2023/12/31 03:24:57;;;;;;;;;45.25;36.25;;;;;6.75;81.14;101500.81;146612;574;46017;-65
2023/12/31 03:27:53;;;;;;;;;49.25;38.00;;;;;6.68;81.29;101502.03;146618;569;46020;-68
2023/12/31 03:30:54;;;;;;;;;48.75;39.75;;;;;6.57;80.86;101500.25;146612;578;46013;-69
2023/12/31 03:33:56;;;;;;;;;50.50;39.75;;;;;4.79;80.86;101198.63;146620;583;46010;-68
2023/12/31 03:36:53;;;;;;;;;45.75;36.00;;;;;6.48;80.83;101513.34;146614;682;47012;-69
2023/12/31 03:39:45;;;;;;;;;51.50;40.50;;;;;6.40;81.61;101507.56;146618;686;47014;-69
2023/12/31 03:42:44;;;;;;;;;52.50;41.00;;;;;6.39;81.37;101517.75;146611;586;46913;-69
2023/12/31 03:45:37;;;;;;;;;50.75;40.25;;;;;6.38;81.69;101523.66;146620;696;46020;-68
2023/12/31 03:48:42;;;;;;;;;50.75;40.50;;;;;6.36;81.67;101518.41;146608;632;47914;-70
2023/12/31 03:51:39;;;;;;;;;43.75;37.00;;;;;6.38;81.72;101532.28;146618;604;46010;-70
2023/12/31 03:55:00;;;;;;;;;50.00;38.00;;;;;4.36;81.75;101186.50;146616;582;46016;-70
2023/12/31 03:57:54;;;;;;;;;46.50;38.00;;;;;6.39;82.42;101546.09;146618;661;47008;-70
2023/12/31 04:00:51;;;;;;;;;50.25;39.50;;;;;6.38;82.17;101544.25;146613;577;46016;-71
2023/12/31 04:04:02;;;;;;;;;43.50;36.50;;;;;6.37;82.60;101543.38;146618;580;47014;-71
2023/12/31 04:06:58;;;;;;;;;56.75;41.50;;;;;6.37;82.38;101561.41;146614;582;47014;-71
2023/12/31 04:09:58;;;;;;;;;52.25;40.25;;;;;6.38;82.18;101564.88;146619;576;46010;-70
2023/12/31 04:13:02;;;;;;;;;50.00;38.25;;;;;6.38;82.01;101570.91;146617;586;46014;-71
2023/12/31 04:16:23;;;;;;;;;50.25;39.75;;;;;6.37;81.42;101570.81;146616;713;47010;-70
2023/12/31 04:19:24;;;;;;;;;50.00;37.25;;;;;6.31;80.97;101570.31;146634;583;45913;-70
2023/12/31 04:22:31;;;;;;;;;47.75;36.25;;;;;6.27;81.10;101584.62;146636;595;46010;-71
2023/12/31 04:25:27;;;;;;;;;52.25;40.00;;;;;6.21;81.14;101574.69;146632;595;45016;-71
2023/12/31 04:28:49;;;;;;;;;57.75;45.00;;;;;3.89;80.93;101180.84;146631;593;45020;-71
2023/12/31 04:31:51;;;;;;;;;65.00;51.25;;;;;6.13;81.09;101582.56;146631;580;45016;-73
2023/12/31 04:34:47;;;;;;;;;57.25;45.50;;;;;6.08;81.39;101574.47;146629;565;46010;-74
2023/12/31 04:37:58;;;;;;;;;56.75;44.00;;;;;6.03;81.24;101575.75;146631;633;46016;-73
2023/12/31 04:40:58;;;;;;;;;56.50;43.25;;;;;5.99;81.75;101573.72;146634;652;45014;-72
2023/12/31 04:43:53;;;;;;;;;64.00;47.25;;;;;5.92;81.76;101571.34;146631;575;45918;-68
2023/12/31 04:47:10;;;;;;;;;54.50;42.50;;;;;5.90;81.28;101567.78;146637;579;45010;-67
2023/12/31 04:50:18;;;;;;;;;58.25;46.25;;;;;2.29;80.96;100936.53;146634;630;45014;-67
2023/12/31 04:53:12;;;;;;;;;55.50;46.25;;;;;5.86;82.01;101576.00;146635;587;45021;-68
2023/12/31 04:56:33;;;;;;;;;55.00;44.00;;;;;5.80;81.34;101566.09;146628;565;46012;-68
2023/12/31 04:59:31;;;;;;;;;56.25;43.75;;;;;5.80;81.91;101571.25;146636;629;45010;-68
2023/12/31 05:02:35;;;;;;;;;50.50;41.50;;;;;5.82;81.92;101573.94;146633;592;45916;-66
2023/12/31 05:05:45;;;;;;;;;48.00;38.25;;;;;5.83;81.96;101562.87;146635;599;46010;-66
2023/12/31 05:08:47;;;;;;;;;54.25;41.00;;;;;5.86;81.71;101565.72;146631;628;45916;-67
2023/12/31 05:11:44;;;;;;;;;47.75;38.75;;;;;5.90;82.02;101578.06;146638;698;45010;-65
2023/12/31 05:14:46;;;;;;;;;50.25;40.50;;;;;5.94;81.67;101578.47;146630;566;45916;-66
2023/12/31 05:17:47;;;;;;;;;53.50;43.75;;;;;5.91;82.29;101572.13;146626;583;46030;-66
2023/12/31 05:20:39;;;;;;;;;53.25;41.75;;;;;5.86;81.31;101579.47;146613;599;47016;-68
2023/12/31 05:23:57;;;;;;;;;53.00;41.25;;;;;5.78;81.65;101580.50;146616;596;46021;-65
2023/12/31 05:26:49;;;;;;;;;50.50;40.25;;;;;5.74;81.71;101581.03;146615;599;46012;-67
2023/12/31 05:29:56;;;;;;;;;54.00;41.50;;;;;5.69;81.94;101582.31;146614;612;47010;-65
2023/12/31 05:32:59;;;;;;;;;48.00;38.25;;;;;5.69;81.59;101587.44;146616;569;47014;-68
2023/12/31 05:36:02;;;;;;;;;47.00;38.75;;;;;5.71;82.50;101591.06;146615;570;46020;-69
2023/12/31 05:39:04;;;;;;;;;;;;;;;;;;;;;
2023/12/31 05:42:14;;;;;;;;;;;;;;;;;;;;;
2023/12/31 05:45:24;;;;;;;;;50.75;41.75;;;;;5.66;82.38;101587.19;146614;621;46013;-67
2023/12/31 05:48:23;;;;;;;;;46.00;39.00;;;;;5.68;82.34;101581.41;146621;573;46010;-66
2023/12/31 05:51:19;;;;;;;;;53.00;41.50;;;;;5.69;82.74;101590.03;146615;585;46017;-67
2023/12/31 05:54:23;;;;;;;;;53.25;43.50;;;;;3.62;82.67;101213.63;146618;608;47010;-70
2023/12/31 05:57:22;;;;;;;;;56.00;43.25;;;;;5.76;83.04;101585.53;146612;614;46014;-70
2023/12/31 06:00:28;;;;;;;;;57.75;42.50;;;;;5.79;82.58;101582.28;146618;625;46014;-69
2023/12/31 06:03:31;;;;;;;;;53.25;40.50;;;;;5.83;83.05;101581.81;146614;590;46012;-69
2023/12/31 06:06:37;;;;;;;;;58.25;45.00;;;;;5.87;82.41;101581.28;146618;681;46020;-70
2023/12/31 06:09:38;;;;;;;;;53.00;43.50;;;;;5.90;82.73;101573.81;146614;563;47012;-69
2023/12/31 06:12:36;;;;;;;;;55.25;44.75;;;;;5.93;82.91;101573.22;146616;622;46014;-67
2023/12/31 06:15:40;;;;;;;;;56.00;43.25;;;;;5.93;82.57;101573.22;146613;597;47016;-68
2023/12/31 06:18:43;;;;;;;;;54.25;43.25;;;;;5.96;83.20;101573.47;146617;635;46033;-67
2023/12/31 06:21:45;;;;;;;;;52.75;41.25;;;;;5.96;83.04;101574.34;146610;597;46012;-67
2023/12/31 06:24:40;;;;;;;;;52.50;41.25;;;;;6.02;83.67;101573.97;146618;625;46010;-67
2023/12/31 06:27:43;;;;;;;;;56.50;44.25;;;;;6.09;83.37;101577.94;146614;622;46030;-67
2023/12/31 06:30:38;;;;;;;;;55.75;44.75;;;;;6.10;83.55;101566.88;146617;614;46014;-67
2023/12/31 06:33:52;;;;;;;;;56.75;44.25;;;;;6.27;83.88;101579.47;146611;609;47016;-67
2023/12/31 06:36:47;;;;;;;;;61.50;46.75;;;;;6.38;84.23;101586.37;146616;603;46021;-68
2023/12/31 06:39:52;;;;;;;;;63.00;49.00;;;;;6.20;83.60;101533.38;146614;580;47016;-68
2023/12/31 06:42:52;;;;;;;;;58.50;45.50;;;;;6.58;83.88;101589.69;146617;577;46020;-70
2023/12/31 06:46:03;;;;;;;;;60.50;46.75;;;;;3.97;83.19;101119.91;146614;592;46012;-69
2023/12/31 06:48:57;;;;;;;;;63.25;47.50;;;;;6.77;84.12;101597.22;146614;563;47014;-69
2023/12/31 06:52:06;;;;;;;;;;;;;;;;;;;;;
2023/12/31 06:55:08;;;;;;;;;58.25;44.50;;;;;6.98;84.31;101604.09;146612;593;47020;-70
2023/12/31 06:58:06;;;;;;;;;60.75;45.50;;;;;7.03;84.08;101587.28;146609;691;47012;-70
2023/12/31 07:01:02;;;;;;;;;58.25;46.75;;;;;7.13;84.29;101587.25;146616;578;46021;-72
2023/12/31 07:04:18;;;;;;;;;58.75;47.25;;;;;7.26;83.97;101596.84;146613;583;47014;-70
2023/12/31 07:07:36;;;;;;;;;62.50;47.75;;;;;3.91;83.24;100992.03;146617;572;46028;-69
2023/12/31 07:10:52;;;;;;;;;59.75;47.75;;;;;7.52;84.68;101598.88;146613;631;46014;-72
2023/12/31 07:13:52;;;;;;;;;64.25;50.50;;;;;7.84;85.61;101605.59;146617;635;47010;-65
2023/12/31 07:16:56;;;;;;;;;58.25;45.25;;;;;8.20;86.91;101610.06;146609;563;47878;-66
2023/12/31 07:19:48;;;;;;;;;59.75;45.25;;;;;8.82;88.45;101607.75;146618;611;46010;-66
2023/12/31 07:23:03;;;;;;;;;59.75;46.25;;;;;9.33;87.24;101616.53;146617;573;46012;-70
2023/12/31 07:26:04;;;;;;;;;56.75;44.50;;;;;9.36;82.41;101588.28;146617;690;46020;-70
2023/12/31 07:29:02;;;;;;;;;55.25;43.75;;;;;9.41;79.90;101612.81;146616;570;46012;-70
2023/12/31 07:31:58;;;;;;;;;55.75;45.25;;;;;9.30;79.39;101621.50;146615;596;46020;-72
2023/12/31 07:35:00;;;;;;;;;58.25;45.50;;;;;9.23;79.27;101628.81;146612;585;46036;-70
2023/12/31 07:38:04;;;;;;;;;56.00;43.25;;;;;9.11;79.23;101627.94;146620;605;45585;-66
2023/12/31 07:40:56;;;;;;;;;63.75;48.00;;;;;9.08;79.58;101639.75;146614;593;47012;-68
2023/12/31 07:43:59;;;;;;;;;74.25;61.00;;;;;9.04;80.04;101638.66;146611;698;47021;-67
2023/12/31 07:47:02;;;;;;;;;61.50;48.50;;;;;9.05;80.41;101639.53;146613;592;46016;-68
2023/12/31 07:50:07;;;;;;;;;54.50;43.25;;;;;9.09;80.92;101649.31;146619;586;47010;-66
2023/12/31 07:53:19;;;;;;;;;;;;;;;;;;;;;
2023/12/31 07:56:22;;;;;;;;;56.75;44.00;;;;;9.21;81.65;101634.66;146617;563;47010;-66
2023/12/31 07:59:46;;;;;;;;;64.50;49.75;;;;;6.71;80.42;101185.25;146613;589;46914;-66
2023/12/31 08:02:41;;;;;;;;;69.00;53.50;;;;;9.36;80.91;101643.53;146616;577;47020;-67
2023/12/31 08:05:34;;;;;;;;;71.75;55.25;;;;;9.40;80.78;101642.03;146614;663;46016;-67
2023/12/31 08:08:29;;;;;;;;;72.50;60.25;;;;;9.50;80.19;101652.25;146614;614;47021;-65
2023/12/31 08:11:38;;;;;;;;;74.50;56.25;;;;;9.61;80.27;101647.84;146611;577;46012;-66
2023/12/31 08:14:39;;;;;;;;;76.67;65.00;;;;;9.74;80.27;101645.28;146614;627;46021;-71
2023/12/31 08:17:43;;;;;;;;;69.50;53.25;;;;;9.83;79.07;101650.22;146615;801;46014;-66
2023/12/31 08:20:43;;;;;;;;;71.00;57.50;;;;;9.88;78.66;101657.50;146619;604;46020;-68
2023/12/31 08:23:41;;;;;;;;;74.33;61.33;;;;;9.93;77.94;101650.03;146616;576;46035;-67
2023/12/31 08:26:45;;;;;;;;;66.50;51.75;;;;;9.94;77.58;101650.16;146616;646;47010;-66
2023/12/31 08:29:43;;;;;;;;;67.25;51.50;;;;;10.01;77.74;101658.34;146616;574;46016;-67
2023/12/31 08:32:46;;;;;;;;;77.00;67.67;;;;;10.07;77.45;101649.31;146615;581;47020;-67
2023/12/31 08:35:49;;;;;;;;;73.25;58.50;;;;;8.13;76.85;101295.25;146615;619;47012;-67
2023/12/31 08:39:06;;;;;;;;;65.25;50.00;;;;;10.23;77.30;101632.19;146615;720;46010;-67
2023/12/31 08:42:12;;;;;;;;;61.75;46.75;;;;;10.38;77.69;101641.03;146611;580;48015;-67
2023/12/31 08:45:11;;;;;;;;;62.75;49.75;;;;;10.60;77.48;101639.06;146618;658;46020;-66
2023/12/31 08:48:17;;;;;;;;;63.50;49.50;;;;;10.94;76.79;101637.75;146614;660;47012;-66
2023/12/31 08:51:17;;;;;;;;;59.50;47.25;;;;;11.25;75.11;101643.22;146615;673;46011;-67
2023/12/31 08:54:24;;;;;;;;;61.00;48.50;;;;;11.47;74.04;101641.16;146612;595;47012;-66
2023/12/31 08:57:30;;;;;;;;;68.50;54.00;;;;;9.56;72.99;101286.72;146614;627;46010;-68
2023/12/31 09:00:34;;;;;;;;;63.75;51.00;;;;;11.72;72.61;101640.97;146611;606;47012;-67
2023/12/31 09:03:52;;;;;;;;;68.50;53.00;;;;;11.82;72.08;101646.72;146619;615;46010;-68
2023/12/31 09:06:49;;;;;;;;;67.00;51.50;;;;;11.87;71.59;101638.44;146611;610;46017;-68
2023/12/31 09:09:46;;;;;;;;;62.00;49.25;;;;;12.00;70.98;101643.56;146616;575;46020;-67
2023/12/31 09:12:52;;;;;;;;;62.00;47.25;;;;;12.05;71.10;101630.81;146614;564;46017;-69
2023/12/31 09:16:09;;;;;;;;;59.25;45.75;;;;;12.12;70.14;101639.87;146616;624;46020;-67
2023/12/31 09:19:30;;;;;;;;;;;;;;;;;;;;;
2023/12/31 09:22:27;;;;;;;;;67.50;51.25;;;;;10.60;69.93;101330.44;146635;620;46010;-67
2023/12/31 09:25:31;;;;;;;;;65.25;50.00;;;;;12.32;70.00;101613.34;146630;566;46023;-67
2023/12/31 09:28:32;;;;;;;;;66.50;51.25;;;;;12.33;69.06;101615.12;146634;569;45021;-67
2023/12/31 09:31:41;;;;;;;;;65.25;50.00;;;;;8.49;69.34;100972.97;146632;624;46014;-68
2023/12/31 09:34:51;;;;;;;;;61.75;49.25;;;;;12.11;70.17;101620.78;146631;582;45021;-67
2023/12/31 09:37:54;;;;;;;;;62.75;49.00;;;;;12.01;70.56;101616.75;146631;610;45016;-67
2023/12/31 09:41:05;;;;;;;;;68.50;53.75;;;;;11.98;71.09;101606.16;146632;622;47010;-69
2023/12/31 09:44:07;;;;;;;;;65.00;51.75;;;;;12.12;72.38;101594.00;146635;618;45017;-67
2023/12/31 09:47:19;;;;;;;;;65.00;50.25;;;;;12.35;72.25;101579.72;146635;776;45020;-68
2023/12/31 09:50:35;;;;;;;;;78.75;69.75;;;;;12.57;71.70;101570.56;146629;638;46914;-68
2023/12/31 09:53:39;;;;;;;;;78.00;68.33;;;;;12.89;69.59;101567.12;146634;624;45020;-66
2023/12/31 09:56:43;;;;;;;;;67.25;52.50;;;;;13.10;70.06;101554.41;146632;597;45012;-66
2023/12/31 09:59:39;;;;;;;;;68.25;52.75;;;;;13.30;68.95;101559.03;146635;590;45014;-66
2023/12/31 10:02:41;;;;;;;;;57.75;46.25;;;;;13.37;68.28;101545.50;146625;610;46012;-67
2023/12/31 10:05:51;;;;;;;;;57.25;44.00;;;;;13.58;68.15;101552.63;146636;634;45020;-67
2023/12/31 10:08:47;;;;;;;;;59.50;45.75;;;;;13.67;67.92;101540.09;146629;597;45034;-66
2023/12/31 10:11:55;;;;;;;;;60.75;46.50;;;;;13.92;67.02;101546.56;146634;566;46020;-67
2023/12/31 10:15:26;;;;;;;;;65.75;50.50;;;;;14.06;65.85;101537.72;146629;643;46014;-66
2023/12/31 10:18:46;;;;;;;;;62.00;49.25;;;;;12.27;66.00;101205.66;146620;606;46011;-72
2023/12/31 10:21:45;;;;;;;;;63.25;48.75;;;;;14.17;65.45;101531.31;146614;582;46012;-68
2023/12/31 10:25:24;;;;;;;;;70.00;56.00;;;;;14.30;66.42;101515.47;146615;681;46020;-67
2023/12/31 10:28:16;;;;;;;;;72.00;57.50;;;;;14.42;65.98;101509.94;146613;573;47014;-67
2023/12/31 10:31:16;;;;;;;;;64.75;49.75;;;;;14.62;66.13;101512.66;146617;566;46020;-67
2023/12/31 10:34:32;;;;;;;;;58.75;46.75;;;;;14.83;65.39;101504.91;146614;565;46914;-67
2023/12/31 10:37:30;;;;;;;;;62.50;49.00;;;;;14.90;63.39;101504.37;146617;600;46020;-66
2023/12/31 10:40:38;;;;;;;;;63.50;49.50;;;;;14.85;64.00;101500.66;146616;596;47012;-69
2023/12/31 10:43:36;;;;;;;;;61.25;48.00;;;;;14.77;63.22;101496.00;146614;575;46020;-66
2023/12/31 10:46:54;;;;;;;;;62.75;49.75;;;;;14.73;63.78;101487.94;146612;622;46014;-68
2023/12/31 10:49:56;;;;;;;;;58.50;44.75;;;;;14.66;63.11;101491.09;146617;584;46021;-67
2023/12/31 10:53:03;;;;;;;;;;;;;;;;;;;;;
2023/12/31 10:56:10;;;;;;;;;55.25;43.75;;;;;14.34;65.14;101490.41;146617;693;47012;-67
2023/12/31 10:59:06;;;;;;;;;59.75;45.75;;;;;14.21;64.69;101483.72;146610;586;47014;-66
2023/12/31 11:02:11;;;;;;;;;57.25;43.50;;;;;14.07;64.62;101483.03;146612;580;47010;-67
2023/12/31 11:05:31;;;;;;;;;51.75;42.75;;;;;11.99;66.16;101136.62;146613;578;46017;-68
2023/12/31 11:08:31;;;;;;;;;57.75;44.75;;;;;13.88;66.50;101467.31;146616;565;47010;-68
2023/12/31 11:11:55;;;;;;;;;35.75;32.75;;;;;13.83;66.09;101464.47;146610;683;46017;-67
2023/12/31 11:14:56;;;;;;;;;65.00;51.50;;;;;13.76;66.04;101458.88;146618;610;46010;-67
2023/12/31 11:18:43;;;;;;;;;60.75;48.00;;;;;12.63;67.13;101274.28;146612;621;46017;-67
2023/12/31 11:22:17;;;;;;;;;55.25;44.25;;;;;13.67;67.17;101455.78;146616;579;46020;-68
2023/12/31 11:25:22;;;;;;;;;60.00;46.75;;;;;13.62;67.01;101448.66;146612;610;46018;-67
2023/12/31 11:28:36;;;;;;;;;54.50;42.50;;;;;13.57;67.18;101442.31;146616;601;47010;-67
2023/12/31 11:31:34;;;;;;;;;60.75;46.00;;;;;13.53;66.36;101432.56;146612;723;46016;-68
2023/12/31 11:34:50;;;;;;;;;53.50;41.75;;;;;13.50;66.71;101427.19;146615;586;47010;-66
2023/12/31 11:37:57;;;;;;;;;55.50;43.50;;;;;13.51;67.15;101428.06;146612;584;46016;-68
2023/12/31 11:40:55;;;;;;;;;58.00;45.25;;;;;13.58;67.87;101419.75;146616;650;47015;-68
2023/12/31 11:44:12;;;;;;;;;57.75;45.25;;;;;11.88;67.36;101088.41;146617;619;46016;-66
2023/12/31 11:47:06;;;;;;;;;62.75;50.00;;;;;13.85;66.69;101412.41;146616;567;46020;-66
2023/12/31 11:50:40;;;;;;;;;59.00;48.00;;;;;11.02;67.79;100944.56;146614;577;46914;-68
2023/12/31 11:53:59;;;;;;;;;67.50;53.25;;;;;14.14;67.32;101408.56;146618;602;46010;-66
2023/12/31 11:57:11;;;;;;;;;63.00;49.00;;;;;14.21;64.80;101396.75;146616;584;46012;-68
2023/12/31 12:00:08;;;;;;;;;64.00;51.00;;;;;14.16;64.92;101400.84;146615;623;46010;-67
2023/12/31 12:03:00;;;;;;;;;67.25;52.75;;;;;14.10;65.28;101397.13;146615;565;46017;-65
2023/12/31 12:06:02;;;;;;;;;68.75;54.75;;;;;14.08;65.23;101392.63;146615;589;46020;-67
2023/12/31 12:09:18;;;;;;;;;69.25;55.50;;;;;14.04;65.35;101393.31;146617;595;46012;-66
2023/12/31 12:12:15;;;;;;;;;63.50;50.50;;;;;14.00;65.68;101399.22;146615;570;46021;-67
2023/12/31 12:15:29;;;;;;;;;65.75;51.75;;;;;13.92;66.32;101392.72;146614;566;46012;-67
2023/12/31 12:18:55;;;;;;;;;;;;;;;;;;;;;
2023/12/31 12:22:31;;;;;;;;;59.00;46.25;;;;;11.55;65.89;101000.97;146611;597;46016;-68
2023/12/31 12:25:29;;;;;;;;;60.25;46.25;;;;;13.61;66.03;101383.41;146619;593;46014;-66
2023/12/31 12:28:26;;;;;;;;;65.25;51.00;;;;;13.51;66.62;101389.87;146612;604;46016;-69
2023/12/31 12:31:30;;;;;;;;;61.25;46.75;;;;;13.42;66.69;101386.81;146616;602;46010;-67
2023/12/31 12:34:46;;;;;;;;;60.00;46.50;;;;;13.34;66.42;101382.97;146614;571;46017;-67
2023/12/31 12:37:49;;;;;;;;;62.75;48.00;;;;;13.18;67.15;101389.94;146618;620;46020;-66
2023/12/31 12:41:04;;;;;;;;;64.50;50.75;;;;;9.89;67.37;100822.63;146614;580;46016;-66
2023/12/31 12:44:10;;;;;;;;;57.00;44.75;;;;;13.07;67.67;101379.78;146616;664;46010;-67
2023/12/31 12:47:22;;;;;;;;;60.75;48.00;;;;;13.06;67.68;101384.12;146614;652;46016;-68
2023/12/31 12:50:30;;;;;;;;;56.50;45.00;;;;;13.07;67.46;101385.00;146614;646;45020;-67
2023/12/31 12:53:28;;;;;;;;;65.75;51.00;;;;;13.03;68.03;101385.66;146614;653;46016;-67
2023/12/31 12:56:22;;;;;;;;;67.00;53.00;;;;;13.01;68.16;101382.97;146616;615;46034;-68
2023/12/31 12:59:44;;;;;;;;;71.75;59.25;;;;;13.03;68.45;101377.84;146608;589;46012;-68
2023/12/31 13:02:39;;;;;;;;;66.25;52.25;;;;;13.02;68.36;101387.38;146609;609;47010;-68
2023/12/31 13:05:40;;;;;;;;;65.00;49.00;;;;;13.01;68.09;101384.69;146613;584;46016;-67
2023/12/31 13:08:50;;;;;;;;;61.00;48.25;;;;;13.00;68.26;101386.41;146617;571;46010;-65
2023/12/31 13:12:15;;;;;;;;;84.67;77.67;;;;;13.02;68.38;101383.84;146617;571;46014;-68
2023/12/31 13:15:17;;;;;;;;;86.33;78.33;;;;;13.06;68.64;101378.91;146625;727;46010;-68
2023/12/31 13:18:14;;;;;;;;;78.67;68.33;;;;;13.16;68.49;101377.66;146619;569;46914;-69
2023/12/31 13:21:07;;;;;;;;;67.50;54.75;;;;;13.23;67.74;101364.12;146618;631;46040;-68
2023/12/31 13:24:05;;;;;;;;;69.75;56.50;;;;;13.29;67.04;101372.28;146612;698;47013;-66
2023/12/31 13:27:04;;;;;;;;;61.00;47.25;;;;;13.34;67.04;101359.50;146618;678;47010;-66
2023/12/31 13:30:14;;;;;;;;;;;;;;;;;;;;;
2023/12/31 13:33:22;;;;;;;;;64.75;50.50;;;;;13.37;66.44;101362.28;146618;597;46014;-67
2023/12/31 13:36:17;;;;;;;;;70.00;57.50;;;;;13.33;66.35;101357.69;146615;611;46012;-68
2023/12/31 13:39:22;;;;;;;;;70.25;60.25;;;;;13.28;66.74;101359.19;146619;581;46011;-69
2023/12/31 13:42:56;;;;;;;;;;;;;;;;;;;;;
2023/12/31 13:46:10;;;;;;;;;76.00;65.67;;;;;13.13;67.60;101367.97;146617;606;46020;-66
2023/12/31 13:49:16;;;;;;;;;92.00;76.67;;;;;13.06;68.01;101363.28;146616;569;46012;-67
2023/12/31 13:52:21;;;;;;;;;101.33;90.00;;;;;11.16;68.29;101046.53;146626;666;46010;-67
2023/12/31 13:55:15;;;;;;;;;87.00;81.33;;;;;12.98;68.63;101371.50;146620;575;46016;-67
2023/12/31 13:58:23;;;;;;;;;108.00;96.67;;;;;12.96;68.76;101368.84;146624;583;46914;-68
2023/12/31 14:01:40;;;;;;;;;107.33;98.67;;;;;9.48;68.89;100761.66;146618;631;46034;-66
2023/12/31 14:04:35;;;;;;;;;118.75;113.50;;;;;13.02;69.25;101373.44;146623;590;46020;-68
2023/12/31 14:07:30;;;;;;;;;105.00;93.00;;;;;13.08;68.56;101368.56;146621;618;46016;-69
2023/12/31 14:10:30;;;;;;;;;86.00;79.00;;;;;13.12;68.38;101374.00;146622;596;45021;-68
2023/12/31 14:13:29;;;;;;;;;82.67;72.00;;;;;13.14;67.68;101363.66;146623;586;46012;-68
2023/12/31 14:16:30;;;;;;;;;79.00;68.33;;;;;13.17;67.61;101366.41;146623;589;46010;-68
2023/12/31 14:19:27;;;;;;;;;84.67;75.67;;;;;13.16;67.78;101369.84;146611;570;47021;-67
2023/12/31 14:22:30;;;;;;;;;86.33;74.67;;;;;13.14;67.94;101371.47;146623;594;46014;-68